createdAt,value
2018-09-03T00:02:27.572Z,16.60
2018-09-03T00:04:55.088Z,16.50
2018-09-03T00:07:22.644Z,16.50
2018-09-03T00:09:50.159Z,16.50
2018-09-03T00:12:17.721Z,16.40
2018-09-03T00:14:45.259Z,16.40
2018-09-03T00:17:12.864Z,16.40
2018-09-03T00:19:40.393Z,16.40
2018-09-03T00:22:07.985Z,16.40
2018-09-03T00:24:35.538Z,16.40
2018-09-03T00:27:03.068Z,16.40
2018-09-03T00:29:30.616Z,16.40
2018-09-03T00:32:03.809Z,16.40
2018-09-03T00:34:36.982Z,16.40
2018-09-03T00:37:10.195Z,16.40
2018-09-03T00:39:43.388Z,16.40
2018-09-03T00:42:16.578Z,16.40
2018-09-03T00:44:49.677Z,16.40
2018-09-03T00:47:17.276Z,16.40
2018-09-03T00:49:44.912Z,16.40
2018-09-03T00:52:12.467Z,16.40
2018-09-03T00:54:40.131Z,16.40
2018-09-03T00:57:08.003Z,16.40
2018-09-03T00:59:35.589Z,16.40
2018-09-03T01:02:03.312Z,16.40
2018-09-03T01:04:30.900Z,16.40
2018-09-03T01:06:58.438Z,16.40
2018-09-03T01:09:26.011Z,16.40
2018-09-03T01:11:53.553Z,16.40
2018-09-03T01:14:21.136Z,16.40
2018-09-03T01:16:48.717Z,16.40
2018-09-03T01:19:16.294Z,16.40
2018-09-03T01:21:43.827Z,16.40
2018-09-03T01:24:11.417Z,16.40
2018-09-03T01:26:39.045Z,16.40
2018-09-03T01:29:06.658Z,16.40
2018-09-03T01:31:34.229Z,16.50
2018-09-03T01:34:01.792Z,16.50
2018-09-03T01:36:29.367Z,16.50
2018-09-03T01:38:56.891Z,16.50
2018-09-03T01:41:24.453Z,16.50
2018-09-03T01:43:52.004Z,16.50
2018-09-03T01:46:19.579Z,16.50
2018-09-03T01:48:47.126Z,16.50
2018-09-03T01:51:14.709Z,16.60
2018-09-03T01:53:42.256Z,16.60
2018-09-03T01:56:10.459Z,16.60
2018-09-03T01:58:38.046Z,16.60
2018-09-03T02:01:05.633Z,16.60
2018-09-03T02:03:33.312Z,16.50
2018-09-03T02:06:00.852Z,16.50
2018-09-03T02:08:28.756Z,16.50
2018-09-03T02:10:56.288Z,16.50
2018-09-03T02:13:23.860Z,16.50
2018-09-03T02:15:51.418Z,16.50
2018-09-03T02:18:18.986Z,16.50
2018-09-03T02:20:46.558Z,16.50
2018-09-03T02:23:14.095Z,16.50
2018-09-03T02:25:41.737Z,16.50
2018-09-03T02:28:09.278Z,16.60
2018-09-03T02:30:36.863Z,16.60
2018-09-03T02:33:04.511Z,16.60
2018-09-03T02:35:32.076Z,16.60
2018-09-03T02:37:59.664Z,16.60
2018-09-03T02:40:27.212Z,16.60
2018-09-03T02:42:54.747Z,16.60
2018-09-03T02:45:22.328Z,16.60
2018-09-03T02:47:49.900Z,16.70
2018-09-03T02:50:17.471Z,16.70
2018-09-03T02:52:45.000Z,16.70
2018-09-03T02:55:12.565Z,16.70
2018-09-03T02:57:40.317Z,16.70
2018-09-03T03:00:07.945Z,16.70
2018-09-03T03:02:35.492Z,16.70
2018-09-03T03:05:03.067Z,16.70
2018-09-03T03:07:30.648Z,16.70
2018-09-03T03:09:58.242Z,16.70
2018-09-03T03:12:25.832Z,16.60
2018-09-03T03:14:56.364Z,16.60
2018-09-03T03:17:24.064Z,16.60
2018-09-03T03:19:51.652Z,16.60
2018-09-03T03:22:19.736Z,16.60
2018-09-03T03:24:47.362Z,16.60
2018-09-03T03:27:15.486Z,16.60
2018-09-03T03:29:43.111Z,16.60
2018-09-03T03:32:10.794Z,16.60
2018-09-03T03:34:38.362Z,16.70
2018-09-03T03:37:06.137Z,16.70
2018-09-03T03:39:33.700Z,16.70
2018-09-03T03:42:01.301Z,16.70
2018-09-03T03:44:28.866Z,16.70
2018-09-03T03:46:56.472Z,16.70
2018-09-03T03:49:24.046Z,16.70
2018-09-03T03:51:51.776Z,16.80
2018-09-03T03:54:19.335Z,16.70
2018-09-03T03:56:46.898Z,16.70
2018-09-03T03:59:14.437Z,16.80
2018-09-03T04:01:41.990Z,16.80
2018-09-03T04:04:09.609Z,16.80
2018-09-03T04:06:37.140Z,16.80
2018-09-03T04:09:06.852Z,16.80
2018-09-03T04:11:34.379Z,16.80
2018-09-03T04:14:01.963Z,16.80
2018-09-03T04:16:29.591Z,16.80
2018-09-03T04:18:57.205Z,16.80
2018-09-03T04:21:25.075Z,16.80
2018-09-03T04:23:52.694Z,16.80
2018-09-03T04:26:20.239Z,16.80
2018-09-03T04:28:47.799Z,16.80
2018-09-03T04:31:15.346Z,16.80
2018-09-03T04:33:42.923Z,16.80
2018-09-03T04:36:10.604Z,16.80
2018-09-03T04:38:38.194Z,16.80
2018-09-03T04:41:05.757Z,16.80
2018-09-03T04:43:33.298Z,16.70
2018-09-03T04:46:00.896Z,16.60
2018-09-03T04:48:28.442Z,16.60
2018-09-03T04:50:56.061Z,16.60
2018-09-03T04:53:23.609Z,16.60
2018-09-03T04:55:51.402Z,16.60
2018-09-03T04:58:18.987Z,16.60
2018-09-03T05:00:46.672Z,16.60
2018-09-03T05:03:14.269Z,16.60
2018-09-03T05:05:41.853Z,16.50
2018-09-03T05:08:09.422Z,16.50
2018-09-03T05:10:37.011Z,16.50
2018-09-03T05:13:04.611Z,16.60
2018-09-03T05:15:32.271Z,16.60
2018-09-03T05:18:00.237Z,16.60
2018-09-03T05:20:27.974Z,16.60
2018-09-03T05:22:56.168Z,16.70
2018-09-03T05:25:23.844Z,16.70
2018-09-03T05:27:51.351Z,16.70
2018-09-03T05:30:18.913Z,16.80
2018-09-03T05:32:46.427Z,16.80
2018-09-03T05:35:14.289Z,16.80
2018-09-03T05:37:41.991Z,16.90
2018-09-03T05:40:09.745Z,17.00
2018-09-03T05:42:37.293Z,17.00
2018-09-03T05:45:05.006Z,17.00
2018-09-03T05:47:32.578Z,17.10
2018-09-03T05:50:00.173Z,17.10
2018-09-03T05:52:27.855Z,17.10
2018-09-03T05:54:55.386Z,17.20
2018-09-03T05:57:22.960Z,17.20
2018-09-03T05:59:50.540Z,17.10
2018-09-03T06:02:18.162Z,17.10
2018-09-03T06:04:45.674Z,17.20
2018-09-03T06:07:13.238Z,17.20
2018-09-03T06:09:40.737Z,17.20
2018-09-03T06:12:08.305Z,17.30
2018-09-03T06:14:35.826Z,17.30
2018-09-03T06:17:03.487Z,17.30
2018-09-03T06:19:31.016Z,17.40
2018-09-03T06:21:58.793Z,17.40
2018-09-03T06:24:26.349Z,17.40
2018-09-03T06:26:53.976Z,17.50
2018-09-03T06:29:21.512Z,17.50
2018-09-03T06:31:49.174Z,17.40
2018-09-03T06:34:16.713Z,17.40
2018-09-03T06:36:44.313Z,17.30
2018-09-03T06:39:12.025Z,17.30
2018-09-03T06:41:39.624Z,17.30
2018-09-03T06:44:07.181Z,17.40
2018-09-03T06:46:34.697Z,17.40
2018-09-03T06:49:02.278Z,17.40
2018-09-03T06:51:29.850Z,17.50
2018-09-03T06:53:57.587Z,17.50
2018-09-03T06:56:25.338Z,17.50
2018-09-03T06:58:52.919Z,17.50
2018-09-03T07:01:20.529Z,17.50
2018-09-03T07:03:48.176Z,17.60
2018-09-03T07:06:15.780Z,17.60
2018-09-03T07:08:43.589Z,17.70
2018-09-03T07:11:11.912Z,17.70
2018-09-03T07:13:39.764Z,17.70
2018-09-03T07:16:07.332Z,17.80
2018-09-03T07:18:34.972Z,17.80
2018-09-03T07:21:02.545Z,18.00
2018-09-03T07:23:30.111Z,18.00
2018-09-03T07:25:57.775Z,18.20
2018-09-03T07:28:25.396Z,18.30
2018-09-03T07:30:52.924Z,18.50
2018-09-03T07:33:20.735Z,18.60
2018-09-03T07:35:48.548Z,18.70
2018-09-03T07:38:16.090Z,18.80
2018-09-03T07:40:43.691Z,18.90
2018-09-03T07:43:11.396Z,18.90
2018-09-03T07:45:39.174Z,19.00
2018-09-03T07:48:06.857Z,19.00
2018-09-03T07:50:34.455Z,19.00
2018-09-03T07:53:02.029Z,19.00
2018-09-03T07:55:29.649Z,18.90
2018-09-03T07:57:57.203Z,18.90
2018-09-03T08:00:24.858Z,18.80
2018-09-03T08:02:52.516Z,18.80
2018-09-03T08:05:20.061Z,18.70
2018-09-03T08:07:47.591Z,18.70
2018-09-03T08:10:15.391Z,18.60
2018-09-03T08:12:42.993Z,18.50
2018-09-03T08:15:10.573Z,18.50
2018-09-03T08:17:38.170Z,18.40
2018-09-03T08:20:05.922Z,18.40
2018-09-03T08:22:33.455Z,18.30
2018-09-03T08:25:01.065Z,18.30
2018-09-03T08:27:28.676Z,18.50
2018-09-03T08:29:56.376Z,18.50
2018-09-03T08:32:23.963Z,18.50
2018-09-03T08:34:51.614Z,18.50
2018-09-03T08:37:19.174Z,18.50
2018-09-03T08:39:46.878Z,18.50
2018-09-03T08:42:14.681Z,18.50
2018-09-03T08:44:42.351Z,18.70
2018-09-03T08:47:09.868Z,18.90
2018-09-03T08:49:37.402Z,19.10
2018-09-03T08:52:05.358Z,19.20
2018-09-03T08:54:32.944Z,19.20
2018-09-03T08:57:00.520Z,19.30
2018-09-03T08:59:28.101Z,19.50
2018-09-03T09:01:55.674Z,19.60
2018-09-03T09:04:23.227Z,19.80
2018-09-03T09:06:50.799Z,19.90
2018-09-03T09:09:18.367Z,20.20
2018-09-03T09:11:46.103Z,20.20
2018-09-03T09:14:13.647Z,20.40
2018-09-03T09:16:41.220Z,20.40
2018-09-03T09:19:08.900Z,20.50
2018-09-03T09:21:36.460Z,20.70
2018-09-03T09:24:04.149Z,21.00
2018-09-03T09:26:31.792Z,21.30
2018-09-03T09:28:59.412Z,21.50
2018-09-03T09:31:27.008Z,21.80
2018-09-03T09:33:54.779Z,21.80
2018-09-03T09:36:22.390Z,22.00
2018-09-03T09:38:49.930Z,22.40
2018-09-03T09:41:17.668Z,22.90
2018-09-03T09:43:45.172Z,23.70
2018-09-03T09:46:12.704Z,24.90
2018-09-03T09:48:40.254Z,25.30
2018-09-03T09:51:07.864Z,25.30
2018-09-03T09:53:35.444Z,25.40
2018-09-03T09:56:03.034Z,25.10
2018-09-03T09:58:30.671Z,25.00
2018-09-03T10:01:03.814Z,24.80
2018-09-03T10:03:31.535Z,24.50
2018-09-03T10:05:59.109Z,24.00
2018-09-03T10:08:26.663Z,23.70
2018-09-03T10:10:54.211Z,23.50
2018-09-03T10:13:21.772Z,23.20
2018-09-03T10:15:49.358Z,23.20
2018-09-03T10:18:16.909Z,22.90
2018-09-03T10:20:44.454Z,22.50
2018-09-03T10:23:12.039Z,22.20
2018-09-03T10:25:39.611Z,22.00
2018-09-03T10:28:07.125Z,21.70
2018-09-03T10:30:34.773Z,21.70
2018-09-03T10:33:03.508Z,21.60
2018-09-03T10:35:31.241Z,21.50
2018-09-03T10:37:58.811Z,21.40
2018-09-03T10:40:26.580Z,21.20
2018-09-03T10:42:55.373Z,21.00
2018-09-03T10:45:22.919Z,20.80
2018-09-03T10:47:50.811Z,20.60
2018-09-03T10:50:18.461Z,20.40
2018-09-03T10:52:46.205Z,20.20
2018-09-03T10:55:13.883Z,20.10
2018-09-03T10:57:41.463Z,20.10
2018-09-03T11:00:09.005Z,20.10
2018-09-03T11:02:36.516Z,20.10
2018-09-03T11:05:04.083Z,20.10
2018-09-03T11:07:31.599Z,20.20
2018-09-03T11:09:59.150Z,20.30
2018-09-03T11:12:26.678Z,20.30
2018-09-03T11:14:54.211Z,20.40
2018-09-03T11:17:21.738Z,20.40
2018-09-03T11:19:54.736Z,20.30
2018-09-03T11:22:22.565Z,20.30
2018-09-03T11:24:50.044Z,20.40
2018-09-03T11:27:17.599Z,20.50
2018-09-03T11:29:45.174Z,20.50
2018-09-03T11:32:12.713Z,20.60
2018-09-03T11:34:40.305Z,20.70
2018-09-03T11:37:07.981Z,20.70
2018-09-03T11:39:35.584Z,20.70
2018-09-03T11:42:03.228Z,20.60
2018-09-03T11:44:30.755Z,20.60
2018-09-03T11:46:58.297Z,20.70
2018-09-03T11:49:25.928Z,20.70
2018-09-03T11:51:53.463Z,20.90
2018-09-03T11:54:21.082Z,21.10
2018-09-03T11:56:48.591Z,21.20
2018-09-03T11:59:16.168Z,21.40
2018-09-03T12:01:43.720Z,21.60
2018-09-03T12:04:11.266Z,21.90
2018-09-03T12:06:38.802Z,22.20
2018-09-03T12:09:08.049Z,22.40
2018-09-03T12:11:35.571Z,22.50
2018-09-03T12:14:08.001Z,22.70
2018-09-03T12:16:35.631Z,22.90
2018-09-03T12:19:03.329Z,23.00
2018-09-03T12:21:30.867Z,23.10
2018-09-03T12:23:58.396Z,23.10
2018-09-03T12:26:26.065Z,23.10
2018-09-03T12:28:53.632Z,23.10
2018-09-03T12:31:21.360Z,23.30
2018-09-03T12:33:49.122Z,23.30
2018-09-03T12:36:16.848Z,23.40
2018-09-03T12:38:44.360Z,23.30
2018-09-03T12:41:12.282Z,23.30
2018-09-03T12:43:40.027Z,23.40
2018-09-03T12:46:08.314Z,23.40
2018-09-03T12:48:35.958Z,23.50
2018-09-03T12:51:04.359Z,23.60
2018-09-03T12:53:32.523Z,23.50
2018-09-03T12:56:00.576Z,23.30
2018-09-03T12:58:28.395Z,23.10
2018-09-03T13:00:55.993Z,23.00
2018-09-03T13:03:23.547Z,22.90
2018-09-03T13:05:51.152Z,22.90
2018-09-03T13:08:18.819Z,22.80
2018-09-03T13:10:46.456Z,22.90
2018-09-03T13:13:14.056Z,23.00
2018-09-03T13:15:41.841Z,23.00
2018-09-03T13:18:09.780Z,23.20
2018-09-03T13:20:37.407Z,23.40
2018-09-03T13:23:05.321Z,23.60
2018-09-03T13:25:33.159Z,23.90
2018-09-03T13:28:00.796Z,24.10
2018-09-03T13:30:28.380Z,24.50
2018-09-03T13:32:56.139Z,25.00
2018-09-03T13:35:24.021Z,26.10
2018-09-03T13:37:51.696Z,27.20
2018-09-03T13:40:19.525Z,28.00
2018-09-03T13:42:47.110Z,28.90
2018-09-03T13:45:14.744Z,30.00
2018-09-03T13:47:42.289Z,31.20
2018-09-03T13:50:10.055Z,32.30
2018-09-03T13:52:37.824Z,33.00
2018-09-03T13:55:05.545Z,33.40
2018-09-03T13:57:33.168Z,34.00
2018-09-03T14:00:00.803Z,34.50
2018-09-03T14:02:28.632Z,34.90
2018-09-03T14:04:56.289Z,35.10
2018-09-03T14:07:23.816Z,35.20
2018-09-03T14:09:51.521Z,34.80
2018-09-03T14:12:19.360Z,34.60
2018-09-03T14:14:47.941Z,34.20
2018-09-03T14:17:15.658Z,34.00
2018-09-03T14:19:43.295Z,34.50
2018-09-03T14:22:10.958Z,34.70
2018-09-03T14:24:38.497Z,35.30
2018-09-03T14:27:06.163Z,36.00
2018-09-03T14:29:33.724Z,36.10
2018-09-03T14:32:01.268Z,35.70
2018-09-03T14:34:28.805Z,35.90
2018-09-03T14:36:56.400Z,36.40
2018-09-03T14:39:23.915Z,36.10
2018-09-03T14:41:51.451Z,35.90
2018-09-03T14:44:18.964Z,36.10
2018-09-03T14:46:46.750Z,36.40
2018-09-03T14:49:14.325Z,36.30
2018-09-03T14:51:41.984Z,36.40
2018-09-03T14:54:09.578Z,36.50
2018-09-03T14:56:37.248Z,36.20
2018-09-03T14:59:07.155Z,35.60
2018-09-03T15:01:34.755Z,34.20
2018-09-03T15:04:02.449Z,33.40
2018-09-03T15:06:30.140Z,32.60
2018-09-03T15:08:58.970Z,32.60
2018-09-03T15:11:26.875Z,32.60
2018-09-03T15:13:58.095Z,31.70
2018-09-03T15:16:27.492Z,31.20
2018-09-03T15:18:55.055Z,31.40
2018-09-03T15:21:22.632Z,31.30
2018-09-03T15:23:50.211Z,31.10
2018-09-03T15:26:17.838Z,30.90
2018-09-03T15:28:45.313Z,30.60
2018-09-03T15:31:12.927Z,30.20
2018-09-03T15:33:40.596Z,30.00
2018-09-03T15:36:10.358Z,30.10
2018-09-03T15:38:37.891Z,29.90
2018-09-03T15:41:06.072Z,29.80
2018-09-03T15:43:33.963Z,29.80
2018-09-03T15:46:01.550Z,29.40
2018-09-03T15:48:29.437Z,29.00
2018-09-03T15:50:57.273Z,28.90
2018-09-03T15:53:25.661Z,28.60
2018-09-03T15:55:53.473Z,28.40
2018-09-03T15:58:21.109Z,28.10
2018-09-03T16:00:48.735Z,27.90
2018-09-03T16:03:16.529Z,27.50
2018-09-03T16:05:44.335Z,27.30
2018-09-03T16:08:11.976Z,27.00
2018-09-03T16:10:39.955Z,26.70
2018-09-03T16:13:07.581Z,26.50
2018-09-03T16:15:35.176Z,26.30
2018-09-03T16:18:02.896Z,26.10
2018-09-03T16:20:30.603Z,26.00
2018-09-03T16:22:58.339Z,25.70
2018-09-03T16:25:26.025Z,25.50
2018-09-03T16:27:53.683Z,25.20
2018-09-03T16:30:21.184Z,25.00
2018-09-03T16:32:48.762Z,24.80
2018-09-03T16:35:16.340Z,24.50
2018-09-03T16:37:44.014Z,24.30
2018-09-03T16:40:11.632Z,24.10
2018-09-03T16:42:39.206Z,23.90
2018-09-03T16:45:06.849Z,23.80
2018-09-03T16:47:34.431Z,23.60
2018-09-03T16:50:02.082Z,23.50
2018-09-03T16:52:29.657Z,23.50
2018-09-03T16:54:57.216Z,23.40
2018-09-03T16:57:24.802Z,23.40
2018-09-03T16:59:52.384Z,23.40
2018-09-03T17:02:19.931Z,23.30
2018-09-03T17:04:47.498Z,23.30
2018-09-03T17:07:15.099Z,23.20
2018-09-03T17:09:42.685Z,23.10
2018-09-03T17:12:10.365Z,23.00
2018-09-03T17:14:37.946Z,22.80
2018-09-03T17:17:05.892Z,22.70
2018-09-03T17:19:33.485Z,22.60
2018-09-03T17:22:01.036Z,22.50
2018-09-03T17:24:28.656Z,22.40
2018-09-03T17:26:56.204Z,22.30
2018-09-03T17:29:23.855Z,22.20
2018-09-03T17:31:51.417Z,22.10
2018-09-03T17:34:18.979Z,21.90
2018-09-03T17:36:46.502Z,21.80
2018-09-03T17:39:14.089Z,21.70
2018-09-03T17:41:41.633Z,21.60
2018-09-03T17:44:09.230Z,21.40
2018-09-03T17:46:36.840Z,21.40
2018-09-03T17:49:04.386Z,21.20
2018-09-03T17:51:32.012Z,21.10
2018-09-03T17:53:59.577Z,20.90
2018-09-03T17:56:27.120Z,20.70
2018-09-03T17:58:54.751Z,20.60
2018-09-03T18:01:22.387Z,20.40
2018-09-03T18:03:50.051Z,20.30
2018-09-03T18:06:17.669Z,20.30
2018-09-03T18:08:45.263Z,20.20
2018-09-03T18:11:12.895Z,20.10
2018-09-03T18:13:40.478Z,20.10
2018-09-03T18:16:08.301Z,20.00
2018-09-03T18:18:35.844Z,20.00
2018-09-03T18:21:03.670Z,20.00
2018-09-03T18:23:31.361Z,19.90
2018-09-03T18:25:59.256Z,19.80
2018-09-03T18:28:27.186Z,19.80
2018-09-03T18:30:54.937Z,19.70
2018-09-03T18:33:22.608Z,19.70
2018-09-03T18:35:50.427Z,19.70
2018-09-03T18:38:18.130Z,19.70
2018-09-03T18:40:45.728Z,19.60
2018-09-03T18:43:13.282Z,19.60
2018-09-03T18:45:41.257Z,19.60
2018-09-03T18:48:08.959Z,19.60
2018-09-03T18:50:36.734Z,19.50
2018-09-03T18:53:05.369Z,19.50
2018-09-03T18:55:33.071Z,19.40
2018-09-03T18:58:00.640Z,19.40
2018-09-03T19:00:28.703Z,19.30
2018-09-03T19:02:56.735Z,19.30
2018-09-03T19:05:24.397Z,19.20
2018-09-03T19:07:52.573Z,19.10
2018-09-03T19:10:20.656Z,19.00
2018-09-03T19:12:48.614Z,19.00
2018-09-03T19:15:16.684Z,18.90
2018-09-03T19:17:44.394Z,18.80
2018-09-03T19:20:12.290Z,18.80
2018-09-03T19:22:40.337Z,18.70
2018-09-03T19:25:08.023Z,18.70
2018-09-03T19:27:36.127Z,18.60
2018-09-03T19:30:03.937Z,18.50
2018-09-03T19:32:31.762Z,18.40
2018-09-03T19:34:59.415Z,18.30
2018-09-03T19:37:26.963Z,18.20
2018-09-03T19:39:54.610Z,18.20
2018-09-03T19:42:22.224Z,18.10
2018-09-03T19:44:49.938Z,18.10
2018-09-03T19:47:17.752Z,18.00
2018-09-03T19:49:45.500Z,18.00
2018-09-03T19:52:13.171Z,18.00
2018-09-03T19:54:40.769Z,17.90
2018-09-03T19:57:08.333Z,17.90
2018-09-03T19:59:36.248Z,17.80
2018-09-03T20:02:03.850Z,17.80
2018-09-03T20:04:31.665Z,17.70
2018-09-03T20:06:59.315Z,17.70
2018-09-03T20:09:26.958Z,17.60
2018-09-03T20:11:54.808Z,17.60
2018-09-03T20:14:22.696Z,17.50
2018-09-03T20:16:50.381Z,17.50
2018-09-03T20:19:17.967Z,17.40
2018-09-03T20:21:45.524Z,17.40
2018-09-03T20:24:13.131Z,17.30
2018-09-03T20:26:41.144Z,17.30
2018-09-03T20:29:08.789Z,17.30
2018-09-03T20:31:36.440Z,17.20
2018-09-03T20:34:04.113Z,17.20
2018-09-03T20:36:31.657Z,17.10
2018-09-03T20:38:59.329Z,17.00
2018-09-03T20:41:27.125Z,17.00
2018-09-03T20:43:54.669Z,16.90
2018-09-03T20:46:22.347Z,16.90
2018-09-03T20:48:50.013Z,16.90
2018-09-03T20:51:17.623Z,16.80
2018-09-03T20:53:45.175Z,16.80
2018-09-03T20:56:12.764Z,16.80
2018-09-03T20:58:40.375Z,16.70
2018-09-03T21:01:07.993Z,16.70
2018-09-03T21:03:35.563Z,16.80
2018-09-03T21:06:03.153Z,16.80
2018-09-03T21:08:30.807Z,16.80
2018-09-03T21:10:58.625Z,16.80
2018-09-03T21:13:26.618Z,16.80
2018-09-03T21:15:54.263Z,16.80
2018-09-03T21:18:21.895Z,16.80
2018-09-03T21:20:49.438Z,16.80
2018-09-03T21:23:16.972Z,16.80
2018-09-03T21:25:44.594Z,16.80
2018-09-03T21:28:12.167Z,16.70
2018-09-03T21:30:39.745Z,16.70
2018-09-03T21:33:07.297Z,16.70
2018-09-03T21:35:34.858Z,16.70
2018-09-03T21:38:02.533Z,16.70
2018-09-03T21:40:30.158Z,16.70
2018-09-03T21:42:57.751Z,16.60
2018-09-03T21:45:25.337Z,16.60
2018-09-03T21:47:52.888Z,16.60
2018-09-03T21:50:20.523Z,16.60
2018-09-03T21:52:48.133Z,16.50
2018-09-03T21:55:15.721Z,16.50
2018-09-03T21:57:43.246Z,16.40
2018-09-03T22:00:11.254Z,16.40
2018-09-03T22:02:38.864Z,16.20
2018-09-03T22:05:06.527Z,16.10
2018-09-03T22:07:34.543Z,16.00
2018-09-03T22:10:02.233Z,15.90
2018-09-03T22:12:29.830Z,15.80
2018-09-03T22:14:57.412Z,15.70
2018-09-03T22:17:24.943Z,15.70
2018-09-03T22:19:52.520Z,15.60
2018-09-03T22:22:20.085Z,15.60
2018-09-03T22:24:47.683Z,15.50
2018-09-03T22:27:15.208Z,15.50
2018-09-03T22:29:42.855Z,15.50
2018-09-03T22:32:10.444Z,15.50
2018-09-03T22:34:38.000Z,15.40
2018-09-03T22:37:05.570Z,15.40
2018-09-03T22:39:33.124Z,15.30
2018-09-03T22:42:00.700Z,15.30
2018-09-03T22:44:28.247Z,15.30
2018-09-03T22:46:55.823Z,15.20
2018-09-03T22:49:23.451Z,15.20
2018-09-03T22:51:52.152Z,15.10
2018-09-03T22:54:19.819Z,15.10
2018-09-03T22:56:47.487Z,15.10
2018-09-03T22:59:14.993Z,15.00
2018-09-03T23:01:42.551Z,15.00
2018-09-03T23:04:10.264Z,15.00
2018-09-03T23:06:37.878Z,14.90
2018-09-03T23:09:06.421Z,14.90
2018-09-03T23:11:34.152Z,14.80
2018-09-03T23:14:01.946Z,14.80
2018-09-03T23:16:29.718Z,14.70
2018-09-03T23:18:57.265Z,14.70
2018-09-03T23:21:25.007Z,14.70
2018-09-03T23:23:52.533Z,14.70
2018-09-03T23:26:20.095Z,14.70
2018-09-03T23:28:47.634Z,14.70
2018-09-03T23:31:15.184Z,14.60
2018-09-03T23:33:42.721Z,14.60
2018-09-03T23:36:10.305Z,14.60
2018-09-03T23:38:37.896Z,14.50
2018-09-03T23:41:05.467Z,14.50
2018-09-03T23:43:33.101Z,14.50
2018-09-03T23:46:00.675Z,14.40
2018-09-03T23:48:28.326Z,14.40
2018-09-03T23:50:55.974Z,14.40
2018-09-03T23:53:23.595Z,14.30
2018-09-03T23:55:51.195Z,14.30
2018-09-03T23:58:18.736Z,14.30
